createdAt,value
2018-03-26T00:00:11.524Z,84.52
2018-03-26T00:01:11.520Z,84.14
2018-03-26T00:02:11.518Z,84.52
2018-03-26T00:03:11.508Z,84.24
2018-03-26T00:04:11.503Z,84.58
2018-03-26T00:05:11.498Z,84.58
2018-03-26T00:06:11.492Z,84.48
2018-03-26T00:07:11.487Z,84.77
2018-03-26T00:08:11.481Z,85.43
2018-03-26T00:09:11.477Z,85.15
2018-03-26T00:10:11.472Z,85.05
2018-03-26T00:11:11.464Z,85.05
2018-03-26T00:12:11.460Z,85.05
2018-03-26T00:13:11.455Z,85.15
2018-03-26T00:14:11.450Z,84.58
2018-03-26T00:15:11.443Z,84.58
2018-03-26T00:16:11.439Z,84.58
2018-03-26T00:17:11.433Z,85.24
2018-03-26T00:18:11.428Z,84.95
2018-03-26T00:19:11.422Z,85.34
2018-03-26T00:20:11.417Z,85.15
2018-03-26T00:21:11.411Z,84.86
2018-03-26T00:22:11.408Z,84.86
2018-03-26T00:23:11.401Z,85.43
2018-03-26T00:24:11.394Z,84.58
2018-03-26T00:25:11.389Z,84.20
2018-03-26T00:26:11.384Z,84.39
2018-03-26T00:27:11.400Z,84.77
2018-03-26T00:28:11.371Z,85.43
2018-03-26T00:29:11.367Z,84.20
2018-03-26T00:30:11.362Z,84.67
2018-03-26T00:31:11.356Z,85.05
2018-03-26T00:32:11.377Z,85.15
2018-03-26T00:33:11.344Z,85.34
2018-03-26T00:34:11.340Z,85.34
2018-03-26T00:35:11.336Z,85.34
2018-03-26T00:36:11.327Z,84.95
2018-03-26T00:37:11.323Z,84.86
2018-03-26T00:38:11.316Z,84.58
2018-03-26T00:39:11.310Z,84.39
2018-03-26T00:40:11.309Z,84.67
2018-03-26T00:41:11.300Z,84.29
2018-03-26T00:42:11.293Z,84.39
2018-03-26T00:43:11.287Z,84.58
2018-03-26T00:44:11.281Z,84.67
2018-03-26T00:45:11.282Z,85.05
2018-03-26T00:46:11.272Z,85.34
2018-03-26T00:47:11.265Z,85.53
2018-03-26T00:48:11.290Z,85.53
2018-03-26T00:49:11.404Z,85.53
2018-03-26T00:50:11.250Z,85.49
2018-03-26T00:51:11.246Z,86.05
2018-03-26T00:52:11.236Z,85.72
2018-03-26T00:53:11.231Z,85.53
2018-03-26T00:54:11.225Z,85.62
2018-03-26T00:55:11.219Z,84.95
2018-03-26T00:56:11.215Z,85.15
2018-03-26T00:57:11.207Z,84.95
2018-03-26T00:58:11.203Z,84.86
2018-03-26T00:59:11.196Z,84.58
2018-03-26T01:00:11.210Z,84.39
2018-03-26T01:01:11.184Z,84.58
2018-03-26T01:02:11.177Z,84.39
2018-03-26T01:03:11.172Z,84.86
2018-03-26T01:04:11.191Z,84.48
2018-03-26T01:05:11.164Z,84.63
2018-03-26T01:06:11.154Z,85.30
2018-03-26T01:07:11.148Z,85.72
2018-03-26T01:08:11.141Z,85.53
2018-03-26T01:09:11.136Z,85.62
2018-03-26T01:10:11.130Z,85.20
2018-03-26T01:11:11.130Z,84.82
2018-03-26T01:12:11.140Z,85.86
2018-03-26T01:13:11.113Z,85.30
2018-03-26T01:14:11.108Z,85.58
2018-03-26T01:15:11.100Z,85.49
2018-03-26T01:16:11.094Z,85.62
2018-03-26T01:17:11.088Z,85.72
2018-03-26T01:18:11.088Z,84.95
2018-03-26T01:19:11.075Z,85.15
2018-03-26T01:20:11.082Z,85.34
2018-03-26T01:21:11.064Z,85.34
2018-03-26T01:22:11.058Z,85.15
2018-03-26T01:23:11.055Z,85.20
2018-03-26T01:24:11.046Z,85.11
2018-03-26T01:25:11.039Z,85.68
2018-03-26T01:26:11.034Z,85.77
2018-03-26T01:27:11.027Z,85.49
2018-03-26T01:28:11.036Z,86.24
2018-03-26T01:29:11.015Z,86.91
2018-03-26T01:30:11.015Z,87.10
2018-03-26T01:31:11.003Z,87.19
2018-03-26T01:32:11.013Z,87.19
2018-03-26T01:33:11.009Z,86.24
2018-03-26T01:34:10.984Z,86.63
2018-03-26T01:35:10.980Z,86.82
2018-03-26T01:36:10.981Z,86.53
2018-03-26T01:37:10.966Z,86.34
2018-03-26T01:38:10.961Z,86.15
2018-03-26T01:39:10.954Z,86.24
2018-03-26T01:40:10.953Z,86.43
2018-03-26T01:41:10.954Z,86.24
2018-03-26T01:42:10.936Z,86.24
2018-03-26T01:43:10.929Z,86.53
2018-03-26T01:44:10.937Z,86.43
2018-03-26T01:45:10.917Z,86.43
2018-03-26T01:46:10.912Z,86.43
2018-03-26T01:47:10.904Z,86.05
2018-03-26T01:48:10.899Z,86.24
2018-03-26T01:49:10.892Z,86.43
2018-03-26T01:50:10.887Z,86.24
2018-03-26T01:51:10.879Z,86.05
2018-03-26T01:52:10.882Z,86.15
2018-03-26T01:53:10.869Z,86.24
2018-03-26T01:54:10.862Z,86.05
2018-03-26T01:55:10.855Z,86.05
2018-03-26T01:56:10.851Z,86.05
2018-03-26T01:57:10.844Z,86.05
2018-03-26T01:58:10.839Z,86.43
2018-03-26T01:59:10.830Z,86.05
2018-03-26T02:00:10.860Z,86.24
2018-03-26T02:01:10.819Z,85.68
2018-03-26T02:02:10.813Z,85.68
2018-03-26T02:03:10.809Z,86.24
2018-03-26T02:04:10.801Z,86.15
2018-03-26T02:05:10.795Z,86.82
2018-03-26T02:06:10.788Z,87.10
2018-03-26T02:07:10.782Z,86.82
2018-03-26T02:08:10.787Z,87.01
2018-03-26T02:09:10.769Z,86.82
2018-03-26T02:10:10.764Z,86.53
2018-03-26T02:11:10.757Z,87.38
2018-03-26T02:12:10.751Z,86.72
2018-03-26T02:13:10.745Z,87.10
2018-03-26T02:14:10.739Z,87.38
2018-03-26T02:15:10.731Z,87.01
2018-03-26T02:16:10.840Z,87.57
2018-03-26T02:17:10.720Z,87.57
2018-03-26T02:18:10.714Z,87.86
2018-03-26T02:19:10.857Z,87.48
2018-03-26T02:20:10.701Z,87.38
2018-03-26T02:21:10.695Z,87.01
2018-03-26T02:22:10.690Z,87.01
2018-03-26T02:23:10.681Z,87.19
2018-03-26T02:24:10.751Z,87.19
2018-03-26T02:25:10.670Z,86.72
2018-03-26T02:26:10.664Z,87.10
2018-03-26T02:27:10.657Z,86.53
2018-03-26T02:28:10.651Z,87.10
2018-03-26T02:29:10.645Z,87.01
2018-03-26T02:30:10.646Z,87.67
2018-03-26T02:31:10.635Z,87.10
2018-03-26T02:32:10.840Z,87.67
2018-03-26T02:33:10.620Z,87.76
2018-03-26T02:34:10.613Z,87.86
2018-03-26T02:35:10.607Z,88.10
2018-03-26T02:36:10.606Z,87.76
2018-03-26T02:37:10.595Z,88.43
2018-03-26T02:38:10.589Z,87.91
2018-03-26T02:39:10.580Z,88.43
2018-03-26T02:40:10.593Z,88.10
2018-03-26T02:41:10.573Z,88.53
2018-03-26T02:42:10.562Z,87.95
2018-03-26T02:43:10.564Z,88.10
2018-03-26T02:44:10.549Z,88.34
2018-03-26T02:45:10.544Z,88.34
2018-03-26T02:46:10.537Z,87.76
2018-03-26T02:47:10.531Z,87.72
2018-03-26T02:48:10.793Z,88.29
2018-03-26T02:49:10.518Z,88.20
2018-03-26T02:50:10.512Z,88.81
2018-03-26T02:51:10.505Z,89.05
2018-03-26T02:52:10.502Z,88.86
2018-03-26T02:53:10.491Z,89.24
2018-03-26T02:54:10.485Z,88.95
2018-03-26T02:55:10.479Z,88.81
2018-03-26T02:56:10.490Z,88.95
2018-03-26T02:57:10.466Z,89.14
2018-03-26T02:58:10.460Z,89.05
2018-03-26T02:59:10.455Z,89.33
2018-03-26T03:00:10.449Z,89.53
2018-03-26T03:01:10.440Z,89.43
2018-03-26T03:02:10.435Z,90.00
2018-03-26T03:03:10.427Z,90.66
2018-03-26T03:04:10.800Z,90.95
2018-03-26T03:05:10.416Z,90.66
2018-03-26T03:06:10.407Z,91.04
2018-03-26T03:07:10.401Z,90.85
2018-03-26T03:08:10.395Z,90.76
2018-03-26T03:09:10.388Z,90.85
2018-03-26T03:10:10.381Z,90.76
2018-03-26T03:11:10.373Z,91.04
2018-03-26T03:12:10.394Z,90.95
2018-03-26T03:13:10.361Z,90.95
2018-03-26T03:14:10.355Z,90.66
2018-03-26T03:15:10.353Z,90.85
2018-03-26T03:16:10.341Z,90.95
2018-03-26T03:17:10.335Z,90.76
2018-03-26T03:18:10.329Z,90.76
2018-03-26T03:19:10.321Z,90.95
2018-03-26T03:20:10.550Z,90.85
2018-03-26T03:21:10.308Z,91.04
2018-03-26T03:22:10.302Z,90.76
2018-03-26T03:23:10.295Z,90.47
2018-03-26T03:24:10.288Z,90.85
2018-03-26T03:25:10.283Z,90.85
2018-03-26T03:26:10.277Z,91.52
2018-03-26T03:27:10.274Z,91.04
2018-03-26T03:28:10.282Z,91.42
2018-03-26T03:29:10.257Z,92.37
2018-03-26T03:30:10.251Z,92.37
2018-03-26T03:31:10.250Z,91.61
2018-03-26T03:32:10.295Z,91.89
2018-03-26T03:33:10.230Z,91.33
2018-03-26T03:34:10.225Z,91.71
2018-03-26T03:35:10.216Z,92.28
2018-03-26T03:36:10.473Z,92.56
2018-03-26T03:37:10.204Z,92.37
2018-03-26T03:38:10.197Z,92.37
2018-03-26T03:39:10.191Z,92.47
2018-03-26T03:40:10.184Z,92.37
2018-03-26T03:41:10.177Z,92.37
2018-03-26T03:42:10.171Z,92.66
2018-03-26T03:43:10.164Z,92.85
2018-03-26T03:44:10.181Z,91.89
2018-03-26T03:45:10.151Z,91.71
2018-03-26T03:46:10.151Z,91.52
2018-03-26T03:47:10.153Z,91.52
2018-03-26T03:48:10.130Z,91.24
2018-03-26T03:49:12.526Z,91.89
2018-03-26T03:50:10.117Z,92.37
2018-03-26T03:51:10.110Z,93.41
2018-03-26T03:52:10.473Z,93.51
2018-03-26T03:53:10.097Z,93.51
2018-03-26T03:54:10.097Z,93.32
2018-03-26T03:55:10.097Z,93.13
2018-03-26T03:56:10.077Z,93.04
2018-03-26T03:57:10.069Z,93.23
2018-03-26T03:58:10.063Z,93.41
2018-03-26T03:59:10.055Z,93.51
2018-03-26T04:00:10.094Z,93.23
2018-03-26T04:01:10.042Z,93.13
2018-03-26T04:02:10.036Z,93.13
2018-03-26T04:03:10.038Z,93.13
2018-03-26T04:04:10.021Z,93.46
2018-03-26T04:05:10.015Z,93.56
2018-03-26T04:06:10.009Z,94.13
2018-03-26T04:07:10.000Z,94.27
2018-03-26T04:08:10.465Z,94.27
2018-03-26T04:09:09.989Z,94.27
2018-03-26T04:10:09.982Z,93.80
2018-03-26T04:11:09.974Z,93.23
2018-03-26T04:12:09.968Z,93.04
2018-03-26T04:13:09.961Z,93.23
2018-03-26T04:14:09.954Z,92.94
2018-03-26T04:15:09.946Z,93.41
2018-03-26T04:16:09.953Z,93.60
2018-03-26T04:17:09.932Z,93.23
2018-03-26T04:18:09.926Z,93.51
2018-03-26T04:19:09.918Z,93.37
2018-03-26T04:20:09.922Z,93.41
2018-03-26T04:21:09.905Z,93.99
2018-03-26T04:22:09.898Z,93.60
2018-03-26T04:23:09.890Z,93.51
2018-03-26T04:24:10.124Z,93.75
2018-03-26T04:25:09.877Z,93.84
2018-03-26T04:26:09.873Z,93.60
2018-03-26T04:27:09.863Z,93.75
2018-03-26T04:28:09.858Z,93.70
2018-03-26T04:29:09.855Z,93.23
2018-03-26T04:30:09.851Z,92.85
2018-03-26T04:31:09.839Z,93.51
2018-03-26T04:32:10.122Z,93.32
2018-03-26T04:33:09.825Z,92.56
2018-03-26T04:34:09.818Z,92.85
2018-03-26T04:35:09.809Z,92.28
2018-03-26T04:36:09.803Z,92.37
2018-03-26T04:37:09.797Z,92.28
2018-03-26T04:38:09.791Z,92.37
2018-03-26T04:39:09.781Z,92.28
2018-03-26T04:40:09.786Z,92.28
2018-03-26T04:41:09.769Z,92.61
2018-03-26T04:42:09.763Z,93.08
2018-03-26T04:43:09.755Z,93.13
2018-03-26T04:44:09.747Z,93.23
2018-03-26T04:45:09.742Z,92.85
2018-03-26T04:46:09.735Z,92.56
2018-03-26T04:47:09.728Z,93.46
2018-03-26T04:48:09.721Z,92.80
2018-03-26T04:49:09.715Z,93.13
2018-03-26T04:50:09.709Z,92.56
2018-03-26T04:51:09.700Z,91.99
2018-03-26T04:52:09.693Z,92.66
2018-03-26T04:53:09.687Z,92.18
2018-03-26T04:54:09.685Z,92.09
2018-03-26T04:55:09.923Z,91.61
2018-03-26T04:56:09.666Z,91.04
2018-03-26T04:57:09.659Z,91.42
2018-03-26T04:58:09.653Z,91.04
2018-03-26T04:59:09.645Z,91.04
2018-03-26T05:00:09.642Z,91.04
2018-03-26T05:01:09.632Z,91.52
2018-03-26T05:02:09.629Z,91.09
2018-03-26T05:03:09.617Z,91.33
2018-03-26T05:04:09.612Z,91.33
2018-03-26T05:05:09.605Z,90.71
2018-03-26T05:06:09.598Z,90.85
2018-03-26T05:07:09.590Z,90.76
2018-03-26T05:08:09.588Z,90.57
2018-03-26T05:09:09.578Z,90.85
2018-03-26T05:10:09.571Z,91.04
2018-03-26T05:11:09.564Z,90.47
2018-03-26T05:12:09.567Z,90.66
2018-03-26T05:13:09.555Z,90.85
2018-03-26T05:14:09.550Z,90.28
2018-03-26T05:15:09.536Z,90.47
2018-03-26T05:16:09.535Z,89.81
2018-03-26T05:17:09.523Z,90.19
2018-03-26T05:18:09.517Z,90.28
2018-03-26T05:19:09.617Z,90.52
2018-03-26T05:20:09.503Z,90.90
2018-03-26T05:21:09.496Z,90.33
2018-03-26T05:22:09.490Z,90.57
2018-03-26T05:23:09.482Z,90.66
2018-03-26T05:24:09.476Z,90.00
2018-03-26T05:25:09.468Z,90.14
2018-03-26T05:26:09.462Z,89.95
2018-03-26T05:27:09.454Z,89.86
2018-03-26T05:28:09.448Z,89.95
2018-03-26T05:29:09.458Z,89.67
2018-03-26T05:30:09.437Z,90.05
2018-03-26T05:31:09.437Z,89.39
2018-03-26T05:32:09.423Z,89.67
2018-03-26T05:33:09.414Z,89.29
2018-03-26T05:34:09.410Z,90.43
2018-03-26T05:35:09.400Z,89.48
2018-03-26T05:36:09.392Z,89.48
2018-03-26T05:37:09.435Z,89.00
2018-03-26T05:38:09.379Z,88.91
2018-03-26T05:39:09.371Z,88.43
2018-03-26T05:40:09.365Z,89.10
2018-03-26T05:41:09.360Z,88.91
2018-03-26T05:42:09.353Z,88.72
2018-03-26T05:43:51.753Z,89.00
2018-03-26T06:04:48.327Z,87.49
2018-03-26T06:13:44.909Z,85.91
2018-03-26T06:15:27.312Z,85.91
2018-03-26T06:16:27.314Z,85.06
2018-03-26T06:21:36.255Z,85.97
2018-03-26T06:23:23.659Z,86.07
2018-03-26T06:24:23.650Z,86.07
2018-03-26T06:28:56.779Z,86.72
2018-03-26T06:31:04.227Z,87.01
2018-03-26T06:36:13.170Z,85.44
2018-03-26T06:38:45.663Z,85.82
2018-03-26T06:39:45.656Z,84.87
2018-03-26T06:40:45.649Z,85.06
2018-03-26T06:42:45.635Z,85.16
2018-03-26T06:49:27.080Z,84.49
2018-03-26T06:51:09.482Z,84.97
2018-03-26T06:53:02.105Z,85.63
2018-03-26T07:01:31.628Z,84.68
2018-03-26T07:03:19.040Z,84.30
2018-03-26T07:05:41.514Z,84.30
2018-03-26T07:06:41.554Z,84.49
2018-03-26T07:07:41.498Z,84.21
2018-03-26T07:09:43.940Z,82.92
2018-03-26T07:10:43.934Z,82.03
2018-03-26T07:11:43.927Z,81.84
2018-03-26T07:12:43.922Z,83.36
2018-03-26T07:13:43.914Z,83.64
2018-03-26T07:14:43.907Z,83.73
2018-03-26T07:15:43.900Z,83.54
2018-03-26T07:16:43.895Z,83.36
2018-03-26T07:17:43.888Z,82.97
2018-03-26T07:18:43.882Z,83.16
2018-03-26T07:19:43.876Z,83.54
2018-03-26T07:20:43.870Z,83.36
2018-03-26T07:21:43.895Z,83.01
2018-03-26T07:22:43.857Z,82.45
2018-03-26T07:23:43.877Z,80.93
2018-03-26T07:24:43.849Z,79.79
2018-03-26T07:25:43.837Z,79.50
2018-03-26T07:26:43.836Z,79.88
2018-03-26T07:27:43.832Z,79.88
2018-03-26T07:28:43.822Z,79.88
2018-03-26T07:29:43.822Z,80.02
2018-03-26T07:30:43.819Z,79.11
2018-03-26T07:31:43.808Z,77.15
2018-03-26T07:32:43.804Z,74.71
2018-03-26T07:33:43.798Z,72.30
2018-03-26T07:34:43.796Z,72.39
2018-03-26T07:35:43.791Z,72.74
2018-03-26T07:36:43.788Z,74.26
2018-03-26T07:37:43.783Z,73.47
2018-03-26T07:38:43.780Z,71.00
2018-03-26T07:39:46.400Z,69.32
2018-03-26T07:43:54.547Z,64.97
2018-03-26T07:44:54.558Z,66.02
2018-03-26T07:45:54.541Z,66.11
2018-03-26T07:49:20.242Z,67.80
2018-03-26T07:51:02.638Z,69.73
2018-03-26T07:52:45.048Z,70.87
2018-03-26T07:53:45.052Z,70.87
2018-03-26T07:54:48.270Z,71.25
2018-03-26T07:55:45.039Z,71.15
2018-03-26T07:56:45.038Z,71.82
2018-03-26T07:59:54.948Z,70.43
2018-03-26T08:00:54.952Z,69.25
2018-03-26T08:03:07.947Z,71.44
2018-03-26T08:04:07.946Z,71.72
2018-03-26T08:05:07.944Z,71.53
2018-03-26T08:08:33.637Z,71.15
2018-03-26T08:14:02.643Z,75.93
2018-03-26T08:15:02.645Z,76.03
2018-03-26T08:16:02.639Z,75.74
2018-03-26T08:17:02.743Z,76.03
2018-03-26T08:18:02.638Z,77.36
2018-03-26T08:19:02.632Z,76.21
2018-03-26T08:20:02.632Z,76.31
2018-03-26T08:21:02.631Z,76.31
2018-03-26T08:22:02.625Z,76.31
2018-03-26T08:23:02.624Z,76.69
2018-03-26T08:24:02.616Z,75.96
2018-03-26T08:25:02.613Z,75.02
2018-03-26T08:26:02.607Z,74.54
2018-03-26T08:27:02.605Z,74.44
2018-03-26T08:28:02.619Z,75.11
2018-03-26T08:29:02.597Z,74.92
2018-03-26T08:30:02.594Z,75.59
2018-03-26T08:31:02.603Z,75.02
2018-03-26T08:32:02.586Z,75.21
2018-03-26T08:33:02.582Z,75.45
2018-03-26T08:34:02.576Z,76.31
2018-03-26T08:35:02.573Z,76.78
2018-03-26T08:36:02.569Z,77.17
2018-03-26T08:37:02.564Z,77.92
2018-03-26T08:38:02.659Z,77.55
2018-03-26T08:39:02.558Z,77.26
2018-03-26T08:40:02.550Z,77.17
2018-03-26T08:41:02.545Z,77.98
2018-03-26T08:42:02.541Z,78.93
2018-03-26T08:43:02.536Z,79.97
2018-03-26T08:44:02.534Z,80.07
2018-03-26T08:45:02.528Z,80.45
2018-03-26T08:46:02.521Z,79.25
2018-03-26T08:47:02.521Z,78.93
2018-03-26T08:48:02.513Z,79.03
2018-03-26T08:49:02.516Z,80.02
2018-03-26T08:50:02.619Z,78.97
2018-03-26T08:51:02.495Z,78.83
2018-03-26T08:52:02.490Z,80.16
2018-03-26T08:53:02.487Z,80.69
2018-03-26T08:54:02.480Z,81.12
2018-03-26T08:55:02.480Z,80.93
2018-03-26T08:56:02.484Z,80.55
2018-03-26T08:57:02.464Z,79.16
2018-03-26T08:58:02.457Z,78.02
2018-03-26T08:59:02.453Z,77.36
2018-03-26T09:00:02.457Z,77.73
2018-03-26T09:01:02.449Z,77.89
2018-03-26T09:02:02.436Z,78.69
2018-03-26T09:03:02.430Z,78.11
2018-03-26T09:04:02.430Z,77.64
2018-03-26T09:05:02.437Z,77.55
2018-03-26T09:06:02.413Z,77.17
2018-03-26T09:07:02.408Z,76.12
2018-03-26T09:08:02.404Z,75.93
2018-03-26T09:09:02.396Z,76.97
2018-03-26T09:10:02.392Z,77.55
2018-03-26T09:11:02.386Z,77.51
2018-03-26T09:12:02.394Z,77.60
2018-03-26T09:13:02.376Z,77.64
2018-03-26T09:14:02.475Z,77.36
2018-03-26T09:15:02.364Z,76.97
2018-03-26T09:16:02.359Z,76.59
2018-03-26T09:17:02.354Z,77.70
2018-03-26T09:18:02.349Z,78.93
2018-03-26T09:19:02.341Z,78.97
2018-03-26T09:20:02.587Z,77.92
2018-03-26T09:21:02.333Z,77.07
2018-03-26T09:22:02.326Z,76.40
2018-03-26T09:23:02.319Z,76.97
2018-03-26T09:24:02.320Z,77.73
2018-03-26T09:25:02.308Z,76.97
2018-03-26T09:26:02.335Z,77.36
2018-03-26T09:27:02.298Z,76.88
2018-03-26T09:28:02.292Z,76.59
2018-03-26T09:29:02.287Z,75.93
2018-03-26T09:30:02.299Z,75.78
2018-03-26T09:31:02.278Z,75.11
2018-03-26T09:32:02.272Z,74.73
2018-03-26T09:33:02.265Z,74.63
2018-03-26T09:34:02.259Z,74.35
2018-03-26T09:35:02.254Z,74.82
2018-03-26T09:36:02.249Z,74.07
2018-03-26T09:37:02.244Z,74.41
2018-03-26T09:38:02.237Z,74.73
2018-03-26T09:39:02.232Z,75.11
2018-03-26T09:40:02.227Z,74.73
2018-03-26T09:41:02.222Z,74.35
2018-03-26T09:42:02.216Z,75.07
2018-03-26T09:43:02.210Z,76.06
2018-03-26T09:44:02.204Z,77.11
2018-03-26T09:45:02.206Z,75.30
2018-03-26T09:46:02.195Z,75.30
2018-03-26T09:47:02.213Z,74.63
2018-03-26T09:48:02.185Z,75.11
2018-03-26T09:49:02.190Z,74.16
2018-03-26T09:50:02.524Z,74.44
2018-03-26T09:51:02.167Z,74.54
2018-03-26T09:52:02.166Z,73.30
2018-03-26T09:53:02.157Z,74.73
2018-03-26T09:54:02.155Z,74.82
2018-03-26T09:55:02.147Z,74.73
2018-03-26T09:56:02.481Z,73.97
2018-03-26T09:57:02.136Z,74.73
2018-03-26T09:58:02.137Z,75.30
2018-03-26T09:59:02.128Z,74.58
2018-03-26T10:00:02.121Z,74.48
2018-03-26T10:01:02.128Z,72.77
2018-03-26T10:02:02.192Z,72.96
2018-03-26T10:03:02.104Z,73.34
2018-03-26T10:04:02.099Z,73.06
2018-03-26T10:05:02.096Z,72.77
2018-03-26T10:06:02.090Z,72.30
2018-03-26T10:07:02.085Z,72.49
2018-03-26T10:08:02.079Z,74.48
2018-03-26T10:09:02.076Z,74.29
2018-03-26T10:10:02.069Z,73.72
2018-03-26T10:11:02.064Z,73.44
2018-03-26T10:12:02.059Z,73.53
2018-03-26T10:13:02.054Z,74.20
2018-03-26T10:14:02.049Z,74.67
2018-03-26T10:15:02.044Z,75.05
2018-03-26T10:16:02.040Z,76.10
2018-03-26T10:17:02.035Z,74.01
2018-03-26T10:18:02.029Z,73.53
2018-03-26T10:19:02.025Z,73.53
2018-03-26T10:20:02.020Z,73.28
2018-03-26T10:21:02.015Z,73.57
2018-03-26T10:22:02.012Z,72.39
2018-03-26T10:23:02.007Z,73.53
2018-03-26T10:24:02.004Z,73.44
2018-03-26T10:25:01.995Z,74.48
2018-03-26T10:26:01.991Z,73.44
2018-03-26T10:27:01.988Z,73.63
2018-03-26T10:28:01.981Z,73.63
2018-03-26T10:29:01.977Z,72.86
2018-03-26T10:30:01.985Z,72.39
2018-03-26T10:31:01.969Z,72.96
2018-03-26T10:32:02.212Z,73.00
2018-03-26T10:33:01.964Z,72.62
2018-03-26T10:34:01.952Z,72.67
2018-03-26T10:35:01.948Z,72.77
2018-03-26T10:36:01.944Z,73.19
2018-03-26T10:37:01.940Z,73.76
2018-03-26T10:38:02.234Z,73.34
2018-03-26T10:39:01.929Z,74.52
2018-03-26T10:40:01.925Z,73.57
2018-03-26T10:41:01.926Z,72.14
2018-03-26T10:42:01.919Z,71.28
2018-03-26T10:43:01.912Z,72.90
2018-03-26T10:44:02.157Z,72.14
2018-03-26T10:45:01.904Z,72.20
2018-03-26T10:46:01.902Z,73.57
2018-03-26T10:47:01.893Z,72.62
2018-03-26T10:48:01.889Z,72.33
2018-03-26T10:49:01.886Z,71.28
2018-03-26T10:50:02.181Z,70.94
2018-03-26T10:51:01.891Z,70.43
2018-03-26T10:52:01.882Z,71.00
2018-03-26T10:53:01.869Z,72.86
2018-03-26T10:54:01.863Z,74.20
2018-03-26T10:55:01.859Z,73.76
2018-03-26T10:56:01.855Z,71.91
2018-03-26T10:57:01.852Z,70.33
2018-03-26T10:58:01.845Z,70.05
2018-03-26T10:59:01.842Z,70.90
2018-03-26T11:00:01.838Z,71.44
2018-03-26T11:01:01.834Z,71.91
2018-03-26T11:02:01.979Z,72.20
2018-03-26T11:03:01.825Z,73.72
2018-03-26T11:04:01.825Z,74.48
2018-03-26T11:05:01.817Z,72.52
2018-03-26T11:06:01.812Z,72.27
2018-03-26T11:07:01.807Z,70.75
2018-03-26T11:08:01.804Z,69.99
2018-03-26T11:09:01.805Z,69.13
2018-03-26T11:10:01.795Z,68.94
2018-03-26T11:11:01.799Z,69.51
2018-03-26T11:12:01.789Z,68.84
2018-03-26T11:13:01.801Z,69.13
2018-03-26T11:14:01.778Z,69.79
2018-03-26T11:15:01.779Z,70.24
2018-03-26T11:16:01.774Z,70.24
2018-03-26T11:17:01.768Z,69.76
2018-03-26T11:18:01.798Z,70.43
2018-03-26T11:19:01.759Z,71.09
2018-03-26T11:20:01.756Z,70.90
2018-03-26T11:21:01.757Z,70.72
2018-03-26T11:22:01.747Z,71.09
2018-03-26T11:23:01.745Z,70.94
2018-03-26T11:24:01.741Z,69.35
2018-03-26T11:25:01.737Z,68.02
2018-03-26T11:26:01.733Z,67.32
2018-03-26T11:27:01.730Z,67.35
2018-03-26T11:28:01.741Z,67.26
2018-03-26T11:29:01.722Z,66.21
2018-03-26T11:30:01.719Z,66.31
2018-03-26T11:31:01.716Z,66.21
2018-03-26T11:32:01.713Z,67.13
2018-03-26T11:33:01.709Z,67.74
2018-03-26T11:34:01.706Z,67.93
2018-03-26T11:35:01.702Z,67.89
2018-03-26T11:36:01.699Z,68.27
2018-03-26T11:37:01.697Z,69.00
2018-03-26T11:38:01.792Z,69.48
2018-03-26T11:39:01.690Z,68.75
2018-03-26T11:40:01.692Z,68.37
2018-03-26T11:41:01.683Z,68.75
2018-03-26T11:42:01.680Z,67.32
2018-03-26T11:43:01.691Z,67.57
2018-03-26T11:44:01.675Z,67.57
2018-03-26T11:45:01.672Z,68.18
2018-03-26T11:46:01.670Z,67.99
2018-03-26T11:47:01.666Z,67.13
2018-03-26T11:48:01.666Z,67.89
2018-03-26T11:49:01.668Z,67.03
2018-03-26T11:50:01.668Z,66.56
2018-03-26T11:51:01.669Z,67.32
2018-03-26T11:52:01.657Z,67.51
2018-03-26T11:53:01.649Z,67.16
2018-03-26T11:54:01.645Z,66.31
2018-03-26T11:55:01.643Z,66.85
2018-03-26T11:56:01.890Z,67.51
2018-03-26T11:57:01.637Z,67.61
2018-03-26T11:58:01.634Z,68.08
2018-03-26T11:59:01.632Z,68.56
2018-03-26T12:00:01.630Z,67.89
2018-03-26T12:01:01.627Z,67.41
2018-03-26T12:02:01.923Z,68.02
2018-03-26T12:03:01.623Z,67.26
2018-03-26T12:04:01.621Z,66.34
2018-03-26T12:05:01.622Z,65.64
2018-03-26T12:06:01.623Z,65.55
2018-03-26T12:07:01.624Z,65.20
2018-03-26T12:08:01.858Z,64.24
2018-03-26T12:09:01.606Z,63.86
2018-03-26T12:10:01.603Z,64.09
2018-03-26T12:11:01.601Z,62.52
2018-03-26T12:12:01.600Z,62.43
2018-03-26T12:13:01.609Z,62.68
2018-03-26T12:14:01.901Z,64.40
2018-03-26T12:15:01.593Z,64.69
2018-03-26T12:16:01.590Z,65.70
2018-03-26T12:17:01.588Z,67.38
2018-03-26T12:18:01.586Z,67.61
2018-03-26T12:19:01.588Z,67.41
2018-03-26T12:20:01.583Z,66.66
2018-03-26T12:21:01.615Z,66.59
2018-03-26T12:22:01.578Z,66.21
2018-03-26T12:23:01.576Z,64.81
2018-03-26T12:24:02.790Z,63.67
2018-03-26T12:25:01.573Z,63.32
2018-03-26T12:26:01.572Z,62.59
2018-03-26T12:27:01.574Z,61.41
2018-03-26T12:28:01.571Z,61.54
2018-03-26T12:29:01.568Z,60.81
2018-03-26T12:30:01.568Z,60.02
2018-03-26T12:31:01.570Z,60.21
2018-03-26T12:32:01.567Z,60.49
2018-03-26T12:33:02.190Z,60.46
2018-03-26T12:34:02.989Z,60.84
2018-03-26T12:35:01.568Z,60.02
2018-03-26T12:36:01.570Z,59.06
2018-03-26T12:37:01.571Z,59.51
2018-03-26T12:38:01.592Z,60.91
2018-03-26T12:39:01.573Z,62.15
2018-03-26T12:40:01.576Z,61.41
2018-03-26T12:41:01.579Z,62.24
2018-03-26T12:42:01.580Z,63.10
2018-03-26T12:43:01.585Z,62.75
2018-03-26T12:44:01.586Z,62.56
2018-03-26T12:45:01.589Z,61.99
2018-03-26T12:46:01.591Z,61.54
2018-03-26T12:47:01.595Z,59.31
2018-03-26T12:48:01.606Z,57.11
2018-03-26T12:49:01.602Z,55.54
2018-03-26T12:50:01.608Z,54.49
2018-03-26T12:51:01.718Z,53.61
2018-03-26T12:52:01.615Z,52.20
2018-03-26T12:53:01.622Z,50.67
2018-03-26T12:54:01.625Z,49.16
2018-03-26T12:55:01.629Z,49.35
2018-03-26T12:56:01.636Z,49.64
2018-03-26T12:57:01.641Z,48.57
2018-03-26T12:58:01.645Z,50.90
2018-03-26T12:59:01.651Z,53.27
2018-03-26T13:00:01.684Z,55.15
2018-03-26T13:01:01.664Z,56.48
2018-03-26T13:02:01.683Z,55.72
2018-03-26T13:03:01.683Z,55.82
2018-03-26T13:04:01.690Z,55.62
2018-03-26T13:05:01.690Z,54.99
2018-03-26T13:06:01.692Z,53.99
2018-03-26T13:07:03.162Z,52.01
2018-03-26T13:08:01.704Z,50.86
2018-03-26T13:09:01.711Z,50.70
2018-03-26T13:10:01.716Z,49.04
2018-03-26T13:11:01.733Z,49.33
2018-03-26T13:12:01.729Z,48.97
2018-03-26T13:13:02.086Z,48.59
2018-03-26T13:14:01.761Z,47.82
2018-03-26T13:15:01.761Z,46.87
2018-03-26T13:16:01.760Z,47.71
2018-03-26T13:17:01.762Z,49.78
2018-03-26T13:18:01.773Z,50.76
2018-03-26T13:19:02.024Z,50.76
2018-03-26T13:20:01.781Z,50.38
2018-03-26T13:21:01.788Z,51.53
2018-03-26T13:22:01.797Z,52.13
2018-03-26T13:23:01.804Z,51.75
2018-03-26T13:24:01.811Z,51.46
2018-03-26T13:25:01.818Z,50.79
2018-03-26T13:26:01.822Z,50.84
2018-03-26T13:27:01.833Z,52.87
2018-03-26T13:28:01.839Z,52.87
2018-03-26T13:29:01.902Z,51.46
2018-03-26T13:30:01.851Z,48.93
2018-03-26T13:31:01.859Z,48.23
2018-03-26T13:32:01.877Z,48.18
2018-03-26T13:33:01.876Z,48.35
2018-03-26T13:34:01.878Z,49.11
2018-03-26T13:35:01.887Z,48.54
2018-03-26T13:36:01.897Z,48.83
2018-03-26T13:37:01.900Z,50.93
2018-03-26T13:38:01.907Z,51.15
2018-03-26T13:39:01.914Z,50.70
2018-03-26T13:40:01.921Z,50.48
2018-03-26T13:41:01.928Z,51.50
2018-03-26T13:42:01.939Z,52.46
2018-03-26T13:43:01.943Z,52.46
2018-03-26T13:44:01.952Z,52.36
2018-03-26T13:45:01.958Z,52.20
2018-03-26T13:46:01.980Z,51.15
2018-03-26T13:47:01.973Z,51.81
2018-03-26T13:48:01.983Z,52.08
2018-03-26T13:49:01.990Z,52.55
2018-03-26T13:50:02.010Z,52.91
2018-03-26T13:51:02.003Z,54.50
2018-03-26T13:52:02.011Z,55.05
2018-03-26T13:53:02.018Z,57.15
2018-03-26T13:54:02.028Z,57.28
2018-03-26T13:55:02.034Z,55.94
2018-03-26T13:56:02.040Z,55.20
2018-03-26T13:57:02.047Z,53.89
2018-03-26T13:58:02.057Z,53.77
2018-03-26T13:59:02.060Z,53.29
2018-03-26T14:00:02.067Z,53.49
2018-03-26T14:01:02.074Z,54.44
2018-03-26T14:02:02.085Z,54.41
2018-03-26T14:03:02.086Z,55.11
2018-03-26T14:04:02.093Z,53.86
2018-03-26T14:05:02.102Z,53.22
2018-03-26T14:06:02.104Z,53.00
2018-03-26T14:07:02.112Z,53.29
2018-03-26T14:08:02.119Z,53.96
2018-03-26T14:09:02.125Z,53.93
2018-03-26T14:10:02.131Z,55.08
2018-03-26T14:11:02.137Z,54.48
2018-03-26T14:12:02.143Z,54.67
2018-03-26T14:13:02.151Z,55.05